Terminal Aerodrome Forecast
Issued by NWS

Current Version | Previous Version | Text Only | Print | Product List | Glossary On
Versions: 1 2 3 4 5 6 7 8 9 10 11 12 13 14 15 16 17 18 19 20 21 22 23 24
266 FTUS41 KOKX 081127 TAFGON TAF KGON 081127Z 0812/0912 04025G35KT 1SM -SN BKN015 FM081300 03023G33KT 1/2SM SN FZFG BKN004 OVC010 FM082000 02015G24KT 1SM -SN BR OVC007 FM090000 01012KT 6SM BR VCSH OVC015 FM090500 01011KT 6SM BR VCSH OVC025=

USA.gov is the U.S. government's official web portal to all federal, state and local government web resources and services.